sensor_id;sensor_type;location;lat;lon;timestamp;P1;durP1;ratioP1;P2;durP2;ratioP2
22965;SDS011;11649;48.090;9.754;2023-06-19T00:02:12;15.27;;;13.80;;
22965;SDS011;11649;48.090;9.754;2023-06-19T00:04:39;14.70;;;13.18;;
22965;SDS011;11649;48.090;9.754;2023-06-19T00:07:06;15.98;;;14.30;;
22965;SDS011;11649;48.090;9.754;2023-06-19T00:09:33;15.40;;;13.77;;
22965;SDS011;11649;48.090;9.754;2023-06-19T00:11:59;14.52;;;12.73;;
22965;SDS011;11649;48.090;9.754;2023-06-19T00:14:27;14.05;;;12.65;;
22965;SDS011;11649;48.090;9.754;2023-06-19T00:16:54;14.27;;;12.85;;
22965;SDS011;11649;48.090;9.754;2023-06-19T00:19:21;14.75;;;13.20;;
22965;SDS011;11649;48.090;9.754;2023-06-19T00:21:48;15.23;;;13.13;;
22965;SDS011;11649;48.090;9.754;2023-06-19T00:24:15;13.93;;;12.45;;
22965;SDS011;11649;48.090;9.754;2023-06-19T00:26:42;14.60;;;13.05;;
22965;SDS011;11649;48.090;9.754;2023-06-19T00:29:09;15.40;;;13.77;;
22965;SDS011;11649;48.090;9.754;2023-06-19T00:31:36;15.68;;;14.02;;
22965;SDS011;11649;48.090;9.754;2023-06-19T00:34:03;14.98;;;13.43;;
22965;SDS011;11649;48.090;9.754;2023-06-19T00:36:30;15.35;;;13.77;;
22965;SDS011;11649;48.090;9.754;2023-06-19T00:38:57;14.43;;;12.98;;
22965;SDS011;11649;48.090;9.754;2023-06-19T00:41:24;15.85;;;14.25;;
22965;SDS011;11649;48.090;9.754;2023-06-19T00:43:54;15.55;;;13.90;;
22965;SDS011;11649;48.090;9.754;2023-06-19T00:46:20;16.55;;;14.82;;
22965;SDS011;11649;48.090;9.754;2023-06-19T00:48:48;14.88;;;12.65;;
22965;SDS011;11649;48.090;9.754;2023-06-19T00:51:15;13.57;;;12.18;;
22965;SDS011;11649;48.090;9.754;2023-06-19T00:53:42;14.20;;;12.85;;
22965;SDS011;11649;48.090;9.754;2023-06-19T00:56:08;13.85;;;12.45;;
22965;SDS011;11649;48.090;9.754;2023-06-19T00:58:35;13.57;;;12.15;;
22965;SDS011;11649;48.090;9.754;2023-06-19T01:01:02;12.23;;;11.02;;
22965;SDS011;11649;48.090;9.754;2023-06-19T01:03:35;15.55;;;12.07;;
22965;SDS011;11649;48.090;9.754;2023-06-19T01:06:02;13.07;;;11.90;;
22965;SDS011;11649;48.090;9.754;2023-06-19T01:11:17;18.80;;;16.73;;
22965;SDS011;11649;48.090;9.754;2023-06-19T01:13:58;19.70;;;17.90;;
22965;SDS011;11649;48.090;9.754;2023-06-19T01:16:27;18.83;;;17.00;;
22965;SDS011;11649;48.090;9.754;2023-06-19T01:18:55;18.63;;;16.85;;
22965;SDS011;11649;48.090;9.754;2023-06-19T01:21:22;17.45;;;15.68;;
22965;SDS011;11649;48.090;9.754;2023-06-19T01:23:49;19.27;;;17.38;;
22965;SDS011;11649;48.090;9.754;2023-06-19T01:26:16;17.67;;;15.77;;
22965;SDS011;11649;48.090;9.754;2023-06-19T01:28:44;25.00;;;21.17;;
22965;SDS011;11649;48.090;9.754;2023-06-19T01:31:13;25.05;;;20.55;;
22965;SDS011;11649;48.090;9.754;2023-06-19T01:33:44;23.63;;;20.27;;
22965;SDS011;11649;48.090;9.754;2023-06-19T01:36:13;20.58;;;18.55;;
22965;SDS011;11649;48.090;9.754;2023-06-19T01:38:41;20.52;;;18.45;;
22965;SDS011;11649;48.090;9.754;2023-06-19T01:41:11;24.92;;;21.70;;
22965;SDS011;11649;48.090;9.754;2023-06-19T01:43:39;20.92;;;18.88;;
22965;SDS011;11649;48.090;9.754;2023-06-19T01:46:07;21.38;;;19.27;;
22965;SDS011;11649;48.090;9.754;2023-06-19T01:48:37;22.27;;;19.67;;
22965;SDS011;11649;48.090;9.754;2023-06-19T01:51:05;23.27;;;20.88;;
22965;SDS011;11649;48.090;9.754;2023-06-19T01:53:32;23.20;;;20.90;;
22965;SDS011;11649;48.090;9.754;2023-06-19T01:55:59;20.25;;;18.27;;
22965;SDS011;11649;48.090;9.754;2023-06-19T01:58:26;22.10;;;20.05;;
22965;SDS011;11649;48.090;9.754;2023-06-19T02:00:52;19.98;;;18.15;;
22965;SDS011;11649;48.090;9.754;2023-06-19T02:03:19;21.77;;;19.75;;
22965;SDS011;11649;48.090;9.754;2023-06-19T02:05:47;20.35;;;18.20;;
22965;SDS011;11649;48.090;9.754;2023-06-19T02:08:14;19.35;;;17.52;;
22965;SDS011;11649;48.090;9.754;2023-06-19T02:10:41;18.23;;;16.48;;
22965;SDS011;11649;48.090;9.754;2023-06-19T02:13:07;19.17;;;17.38;;
22965;SDS011;11649;48.090;9.754;2023-06-19T02:15:34;18.75;;;17.00;;
22965;SDS011;11649;48.090;9.754;2023-06-19T02:18:01;18.52;;;16.67;;
22965;SDS011;11649;48.090;9.754;2023-06-19T02:20:28;16.60;;;15.02;;
22965;SDS011;11649;48.090;9.754;2023-06-19T02:22:55;19.10;;;17.38;;
22965;SDS011;11649;48.090;9.754;2023-06-19T02:25:22;18.48;;;16.67;;
22965;SDS011;11649;48.090;9.754;2023-06-19T02:27:49;18.25;;;16.40;;
22965;SDS011;11649;48.090;9.754;2023-06-19T02:30:16;21.25;;;19.25;;
22965;SDS011;11649;48.090;9.754;2023-06-19T02:32:43;19.95;;;18.20;;
22965;SDS011;11649;48.090;9.754;2023-06-19T02:35:10;20.10;;;18.13;;
22965;SDS011;11649;48.090;9.754;2023-06-19T02:37:38;23.52;;;21.50;;
22965;SDS011;11649;48.090;9.754;2023-06-19T02:40:05;22.95;;;20.88;;
22965;SDS011;11649;48.090;9.754;2023-06-19T02:42:32;25.23;;;22.90;;
22965;SDS011;11649;48.090;9.754;2023-06-19T02:44:59;24.10;;;21.85;;
22965;SDS011;11649;48.090;9.754;2023-06-19T02:47:30;21.90;;;20.00;;
22965;SDS011;11649;48.090;9.754;2023-06-19T02:49:58;20.20;;;18.10;;
22965;SDS011;11649;48.090;9.754;2023-06-19T02:52:26;19.85;;;17.95;;
22965;SDS011;11649;48.090;9.754;2023-06-19T02:54:53;24.08;;;21.92;;
22965;SDS011;11649;48.090;9.754;2023-06-19T02:57:20;20.50;;;18.63;;
22965;SDS011;11649;48.090;9.754;2023-06-19T02:59:47;18.88;;;16.98;;
22965;SDS011;11649;48.090;9.754;2023-06-19T03:02:14;23.88;;;21.70;;
22965;SDS011;11649;48.090;9.754;2023-06-19T03:04:41;21.08;;;19.02;;
22965;SDS011;11649;48.090;9.754;2023-06-19T03:07:08;17.00;;;15.50;;
22965;SDS011;11649;48.090;9.754;2023-06-19T03:09:35;18.20;;;16.48;;
22965;SDS011;11649;48.090;9.754;2023-06-19T03:12:02;19.30;;;17.58;;
22965;SDS011;11649;48.090;9.754;2023-06-19T03:14:29;19.92;;;17.95;;
22965;SDS011;11649;48.090;9.754;2023-06-19T03:16:56;20.13;;;18.30;;
22965;SDS011;11649;48.090;9.754;2023-06-19T03:19:23;19.27;;;17.40;;
22965;SDS011;11649;48.090;9.754;2023-06-19T03:21:50;16.15;;;14.65;;
22965;SDS011;11649;48.090;9.754;2023-06-19T03:24:16;18.23;;;16.58;;
22965;SDS011;11649;48.090;9.754;2023-06-19T03:26:43;17.88;;;16.27;;
22965;SDS011;11649;48.090;9.754;2023-06-19T03:29:10;17.13;;;15.55;;
22965;SDS011;11649;48.090;9.754;2023-06-19T03:31:37;16.98;;;15.25;;
22965;SDS011;11649;48.090;9.754;2023-06-19T03:34:05;16.85;;;15.27;;
22965;SDS011;11649;48.090;9.754;2023-06-19T03:36:32;16.65;;;15.18;;
22965;SDS011;11649;48.090;9.754;2023-06-19T03:38:59;15.98;;;14.45;;
22965;SDS011;11649;48.090;9.754;2023-06-19T03:41:26;17.20;;;15.65;;
22965;SDS011;11649;48.090;9.754;2023-06-19T03:43:53;16.70;;;15.20;;
22965;SDS011;11649;48.090;9.754;2023-06-19T03:46:19;18.88;;;17.15;;
22965;SDS011;11649;48.090;9.754;2023-06-19T03:48:46;18.58;;;16.92;;
22965;SDS011;11649;48.090;9.754;2023-06-19T03:51:13;16.15;;;14.75;;
22965;SDS011;11649;48.090;9.754;2023-06-19T03:53:40;16.00;;;14.40;;
22965;SDS011;11649;48.090;9.754;2023-06-19T03:56:08;20.52;;;18.63;;
22965;SDS011;11649;48.090;9.754;2023-06-19T03:58:35;15.35;;;13.90;;
22965;SDS011;11649;48.090;9.754;2023-06-19T04:01:02;16.05;;;14.60;;
22965;SDS011;11649;48.090;9.754;2023-06-19T04:03:29;18.13;;;16.45;;
22965;SDS011;11649;48.090;9.754;2023-06-19T04:05:56;17.65;;;15.98;;
22965;SDS011;11649;48.090;9.754;2023-06-19T04:08:23;18.13;;;16.42;;
22965;SDS011;11649;48.090;9.754;2023-06-19T04:10:51;15.85;;;14.43;;
22965;SDS011;11649;48.090;9.754;2023-06-19T04:13:18;20.00;;;17.88;;
22965;SDS011;11649;48.090;9.754;2023-06-19T04:15:45;19.17;;;17.48;;
22965;SDS011;11649;48.090;9.754;2023-06-19T04:18:16;17.67;;;15.85;;
22965;SDS011;11649;48.090;9.754;2023-06-19T04:20:43;18.30;;;16.60;;
22965;SDS011;11649;48.090;9.754;2023-06-19T04:23:09;18.52;;;16.90;;
22965;SDS011;11649;48.090;9.754;2023-06-19T04:25:37;17.73;;;16.17;;
22965;SDS011;11649;48.090;9.754;2023-06-19T04:28:03;19.08;;;17.40;;
22965;SDS011;11649;48.090;9.754;2023-06-19T04:30:30;17.70;;;15.90;;
22965;SDS011;11649;48.090;9.754;2023-06-19T04:32:57;16.05;;;14.43;;
22965;SDS011;11649;48.090;9.754;2023-06-19T04:35:25;16.95;;;15.43;;
22965;SDS011;11649;48.090;9.754;2023-06-19T04:37:52;18.75;;;17.05;;
22965;SDS011;11649;48.090;9.754;2023-06-19T04:40:20;18.13;;;16.30;;
22965;SDS011;11649;48.090;9.754;2023-06-19T04:42:47;16.85;;;15.27;;
22965;SDS011;11649;48.090;9.754;2023-06-19T04:45:14;18.30;;;16.60;;
22965;SDS011;11649;48.090;9.754;2023-06-19T04:47:40;16.88;;;15.30;;
22965;SDS011;11649;48.090;9.754;2023-06-19T04:50:19;17.83;;;16.27;;
22965;SDS011;11649;48.090;9.754;2023-06-19T04:52:47;18.55;;;16.92;;
22965;SDS011;11649;48.090;9.754;2023-06-19T04:55:17;20.15;;;18.05;;
22965;SDS011;11649;48.090;9.754;2023-06-19T04:57:44;18.95;;;16.95;;
22965;SDS011;11649;48.090;9.754;2023-06-19T05:00:11;19.00;;;17.00;;
22965;SDS011;11649;48.090;9.754;2023-06-19T05:02:39;17.63;;;16.00;;
22965;SDS011;11649;48.090;9.754;2023-06-19T05:05:10;17.77;;;15.98;;
22965;SDS011;11649;48.090;9.754;2023-06-19T05:07:37;16.90;;;15.18;;
22965;SDS011;11649;48.090;9.754;2023-06-19T05:10:04;20.23;;;16.67;;
22965;SDS011;11649;48.090;9.754;2023-06-19T05:12:31;18.58;;;16.65;;
22965;SDS011;11649;48.090;9.754;2023-06-19T05:15:00;21.10;;;18.98;;
22965;SDS011;11649;48.090;9.754;2023-06-19T05:17:27;22.77;;;20.45;;
22965;SDS011;11649;48.090;9.754;2023-06-19T05:19:54;22.38;;;17.67;;
22965;SDS011;11649;48.090;9.754;2023-06-19T05:22:20;33.40;;;20.48;;
22965;SDS011;11649;48.090;9.754;2023-06-19T05:24:50;36.80;;;19.85;;
22965;SDS011;11649;48.090;9.754;2023-06-19T05:27:17;37.03;;;18.67;;
22965;SDS011;11649;48.090;9.754;2023-06-19T05:29:44;32.40;;;16.35;;
22965;SDS011;11649;48.090;9.754;2023-06-19T05:32:11;32.88;;;16.85;;
22965;SDS011;11649;48.090;9.754;2023-06-19T05:34:39;32.05;;;18.00;;
22965;SDS011;11649;48.090;9.754;2023-06-19T05:37:05;25.52;;;16.42;;
22965;SDS011;11649;48.090;9.754;2023-06-19T05:39:32;24.52;;;17.30;;
22965;SDS011;11649;48.090;9.754;2023-06-19T05:41:59;20.65;;;14.15;;
22965;SDS011;11649;48.090;9.754;2023-06-19T05:44:26;19.45;;;17.40;;
22965;SDS011;11649;48.090;9.754;2023-06-19T05:46:53;18.67;;;16.85;;
22965;SDS011;11649;48.090;9.754;2023-06-19T05:49:19;16.50;;;14.80;;
22965;SDS011;11649;48.090;9.754;2023-06-19T05:51:46;16.02;;;14.43;;
22965;SDS011;11649;48.090;9.754;2023-06-19T05:54:14;20.77;;;18.88;;
22965;SDS011;11649;48.090;9.754;2023-06-19T05:56:41;20.27;;;18.38;;
22965;SDS011;11649;48.090;9.754;2023-06-19T05:59:07;17.10;;;15.70;;
22965;SDS011;11649;48.090;9.754;2023-06-19T06:01:34;16.42;;;14.88;;
22965;SDS011;11649;48.090;9.754;2023-06-19T06:04:01;16.35;;;14.77;;
22965;SDS011;11649;48.090;9.754;2023-06-19T06:06:28;19.80;;;17.88;;
22965;SDS011;11649;48.090;9.754;2023-06-19T06:08:55;16.08;;;14.68;;
22965;SDS011;11649;48.090;9.754;2023-06-19T06:11:22;18.23;;;16.52;;
22965;SDS011;11649;48.090;9.754;2023-06-19T06:13:49;22.23;;;19.98;;
22965;SDS011;11649;48.090;9.754;2023-06-19T06:16:16;19.20;;;17.02;;
22965;SDS011;11649;48.090;9.754;2023-06-19T06:18:44;20.13;;;18.33;;
22965;SDS011;11649;48.090;9.754;2023-06-19T06:21:11;19.35;;;17.50;;
22965;SDS011;11649;48.090;9.754;2023-06-19T06:23:40;18.38;;;16.60;;
22965;SDS011;11649;48.090;9.754;2023-06-19T06:26:08;15.52;;;14.15;;
22965;SDS011;11649;48.090;9.754;2023-06-19T06:28:34;20.60;;;15.43;;
22965;SDS011;11649;48.090;9.754;2023-06-19T06:31:01;18.98;;;17.13;;
22965;SDS011;11649;48.090;9.754;2023-06-19T06:33:28;17.83;;;16.15;;
22965;SDS011;11649;48.090;9.754;2023-06-19T06:35:56;17.63;;;16.13;;
22965;SDS011;11649;48.090;9.754;2023-06-19T06:38:24;15.55;;;14.13;;
22965;SDS011;11649;48.090;9.754;2023-06-19T06:40:50;13.95;;;12.55;;
22965;SDS011;11649;48.090;9.754;2023-06-19T06:43:18;15.65;;;14.18;;
22965;SDS011;11649;48.090;9.754;2023-06-19T06:45:44;21.48;;;14.18;;
22965;SDS011;11649;48.090;9.754;2023-06-19T06:48:11;13.27;;;10.98;;
22965;SDS011;11649;48.090;9.754;2023-06-19T06:50:38;16.88;;;15.23;;
22965;SDS011;11649;48.090;9.754;2023-06-19T06:53:05;17.17;;;15.20;;
22965;SDS011;11649;48.090;9.754;2023-06-19T06:55:32;19.95;;;13.73;;
22965;SDS011;11649;48.090;9.754;2023-06-19T06:57:59;17.73;;;15.70;;
22965;SDS011;11649;48.090;9.754;2023-06-19T07:00:25;15.30;;;12.20;;
22965;SDS011;11649;48.090;9.754;2023-06-19T07:02:52;15.35;;;12.20;;
22965;SDS011;11649;48.090;9.754;2023-06-19T07:05:19;15.93;;;14.52;;
22965;SDS011;11649;48.090;9.754;2023-06-19T07:07:46;12.98;;;11.70;;
22965;SDS011;11649;48.090;9.754;2023-06-19T07:10:13;14.00;;;12.60;;
22965;SDS011;11649;48.090;9.754;2023-06-19T07:12:46;16.08;;;14.45;;
22965;SDS011;11649;48.090;9.754;2023-06-19T07:15:14;14.23;;;12.82;;
22965;SDS011;11649;48.090;9.754;2023-06-19T07:17:42;14.88;;;13.50;;
22965;SDS011;11649;48.090;9.754;2023-06-19T07:20:10;13.13;;;11.98;;
22965;SDS011;11649;48.090;9.754;2023-06-19T07:22:37;14.98;;;13.52;;
22965;SDS011;11649;48.090;9.754;2023-06-19T07:25:05;18.30;;;16.52;;
22965;SDS011;11649;48.090;9.754;2023-06-19T07:27:32;13.40;;;12.07;;
22965;SDS011;11649;48.090;9.754;2023-06-19T07:29:59;13.32;;;12.05;;
22965;SDS011;11649;48.090;9.754;2023-06-19T07:32:25;15.82;;;14.23;;
22965;SDS011;11649;48.090;9.754;2023-06-19T07:34:53;21.15;;;16.83;;
22965;SDS011;11649;48.090;9.754;2023-06-19T07:37:20;22.58;;;20.23;;
22965;SDS011;11649;48.090;9.754;2023-06-19T07:39:47;22.65;;;20.30;;
22965;SDS011;11649;48.090;9.754;2023-06-19T07:42:16;28.40;;;25.25;;
22965;SDS011;11649;48.090;9.754;2023-06-19T07:44:44;26.73;;;23.35;;
22965;SDS011;11649;48.090;9.754;2023-06-19T07:47:12;27.50;;;24.65;;
22965;SDS011;11649;48.090;9.754;2023-06-19T07:49:41;25.90;;;21.42;;
22965;SDS011;11649;48.090;9.754;2023-06-19T07:52:07;23.05;;;19.40;;
22965;SDS011;11649;48.090;9.754;2023-06-19T07:54:47;32.30;;;27.92;;
22965;SDS011;11649;48.090;9.754;2023-06-19T07:57:16;31.83;;;27.23;;
22965;SDS011;11649;48.090;9.754;2023-06-19T07:59:43;30.83;;;27.02;;
22965;SDS011;11649;48.090;9.754;2023-06-19T08:02:11;31.90;;;28.30;;
22965;SDS011;11649;48.090;9.754;2023-06-19T08:04:37;25.25;;;22.92;;
22965;SDS011;11649;48.090;9.754;2023-06-19T08:07:04;30.80;;;27.40;;
22965;SDS011;11649;48.090;9.754;2023-06-19T08:09:32;30.92;;;27.77;;
22965;SDS011;11649;48.090;9.754;2023-06-19T08:11:59;12.65;;;10.63;;
22965;SDS011;11649;48.090;9.754;2023-06-19T08:14:26;14.55;;;11.50;;
22965;SDS011;11649;48.090;9.754;2023-06-19T08:16:54;13.15;;;11.85;;
22965;SDS011;11649;48.090;9.754;2023-06-19T08:19:21;13.40;;;12.05;;
22965;SDS011;11649;48.090;9.754;2023-06-19T08:21:47;13.80;;;12.45;;
22965;SDS011;11649;48.090;9.754;2023-06-19T08:24:14;13.75;;;12.48;;
22965;SDS011;11649;48.090;9.754;2023-06-19T08:26:41;13.00;;;11.63;;
22965;SDS011;11649;48.090;9.754;2023-06-19T08:29:08;14.38;;;12.55;;
22965;SDS011;11649;48.090;9.754;2023-06-19T08:31:35;12.82;;;11.63;;
22965;SDS011;11649;48.090;9.754;2023-06-19T08:34:01;14.27;;;12.88;;
22965;SDS011;11649;48.090;9.754;2023-06-19T08:36:33;13.93;;;12.48;;
22965;SDS011;11649;48.090;9.754;2023-06-19T08:39:00;14.70;;;13.30;;
22965;SDS011;11649;48.090;9.754;2023-06-19T08:41:27;13.00;;;11.60;;
22965;SDS011;11649;48.090;9.754;2023-06-19T08:43:54;13.30;;;11.85;;
22965;SDS011;11649;48.090;9.754;2023-06-19T08:46:21;13.30;;;12.00;;
22965;SDS011;11649;48.090;9.754;2023-06-19T08:48:47;12.93;;;11.60;;
22965;SDS011;11649;48.090;9.754;2023-06-19T08:51:14;10.63;;;9.57;;
22965;SDS011;11649;48.090;9.754;2023-06-19T08:53:45;11.07;;;9.68;;
22965;SDS011;11649;48.090;9.754;2023-06-19T08:56:20;10.45;;;9.45;;
22965;SDS011;11649;48.090;9.754;2023-06-19T08:58:47;12.18;;;10.90;;
22965;SDS011;11649;48.090;9.754;2023-06-19T09:01:17;11.15;;;10.05;;
22965;SDS011;11649;48.090;9.754;2023-06-19T09:03:46;9.80;;;7.95;;
22965;SDS011;11649;48.090;9.754;2023-06-19T09:06:15;8.48;;;7.63;;
22965;SDS011;11649;48.090;9.754;2023-06-19T09:08:42;10.90;;;9.90;;
22965;SDS011;11649;48.090;9.754;2023-06-19T09:11:10;10.60;;;9.70;;
22965;SDS011;11649;48.090;9.754;2023-06-19T09:13:37;10.82;;;9.80;;
22965;SDS011;11649;48.090;9.754;2023-06-19T09:16:05;12.27;;;11.25;;
22965;SDS011;11649;48.090;9.754;2023-06-19T09:18:46;12.10;;;11.02;;
22965;SDS011;11649;48.090;9.754;2023-06-19T09:21:15;11.18;;;10.20;;
22965;SDS011;11649;48.090;9.754;2023-06-19T09:23:47;12.32;;;11.07;;
22965;SDS011;11649;48.090;9.754;2023-06-19T09:26:16;11.40;;;9.07;;
22965;SDS011;11649;48.090;9.754;2023-06-19T09:28:44;12.93;;;11.82;;
22965;SDS011;11649;48.090;9.754;2023-06-19T09:31:11;13.65;;;12.50;;
22965;SDS011;11649;48.090;9.754;2023-06-19T09:33:41;13.90;;;12.80;;
22965;SDS011;11649;48.090;9.754;2023-06-19T09:36:08;11.63;;;10.43;;
22965;SDS011;11649;48.090;9.754;2023-06-19T09:38:36;15.02;;;13.80;;
22965;SDS011;11649;48.090;9.754;2023-06-19T09:41:05;17.30;;;15.75;;
22965;SDS011;11649;48.090;9.754;2023-06-19T09:43:36;13.98;;;12.77;;
22965;SDS011;11649;48.090;9.754;2023-06-19T09:46:11;15.43;;;14.07;;
22965;SDS011;11649;48.090;9.754;2023-06-19T09:48:43;13.10;;;11.93;;
22965;SDS011;11649;48.090;9.754;2023-06-19T09:51:19;11.45;;;10.40;;
22965;SDS011;11649;48.090;9.754;2023-06-19T09:53:48;12.77;;;11.70;;
22965;SDS011;11649;48.090;9.754;2023-06-19T09:56:15;12.77;;;11.50;;
22965;SDS011;11649;48.090;9.754;2023-06-19T09:58:50;20.33;;;18.70;;
22965;SDS011;11649;48.090;9.754;2023-06-19T10:01:19;15.10;;;13.85;;
22965;SDS011;11649;48.090;9.754;2023-06-19T10:03:46;14.27;;;13.07;;
22965;SDS011;11649;48.090;9.754;2023-06-19T10:06:14;21.92;;;20.10;;
22965;SDS011;11649;48.090;9.754;2023-06-19T10:08:43;13.05;;;11.85;;
22965;SDS011;11649;48.090;9.754;2023-06-19T10:11:11;17.65;;;16.25;;
22965;SDS011;11649;48.090;9.754;2023-06-19T10:13:42;14.90;;;13.52;;
22965;SDS011;11649;48.090;9.754;2023-06-19T10:16:21;17.70;;;16.02;;
22965;SDS011;11649;48.090;9.754;2023-06-19T10:18:49;19.88;;;18.23;;
22965;SDS011;11649;48.090;9.754;2023-06-19T10:21:17;26.98;;;24.48;;
22965;SDS011;11649;48.090;9.754;2023-06-19T10:23:54;20.65;;;18.88;;
22965;SDS011;11649;48.090;9.754;2023-06-19T10:26:32;21.30;;;19.63;;
22965;SDS011;11649;48.090;9.754;2023-06-19T10:29:01;27.88;;;25.67;;
22965;SDS011;11649;48.090;9.754;2023-06-19T10:31:30;23.85;;;21.92;;
22965;SDS011;11649;48.090;9.754;2023-06-19T10:33:57;26.20;;;23.98;;
22965;SDS011;11649;48.090;9.754;2023-06-19T10:36:24;27.45;;;25.23;;
22965;SDS011;11649;48.090;9.754;2023-06-19T10:38:52;26.05;;;23.88;;
22965;SDS011;11649;48.090;9.754;2023-06-19T10:41:21;30.40;;;27.80;;
22965;SDS011;11649;48.090;9.754;2023-06-19T10:43:55;32.83;;;30.05;;
22965;SDS011;11649;48.090;9.754;2023-06-19T10:46:31;25.50;;;23.35;;
22965;SDS011;11649;48.090;9.754;2023-06-19T10:48:59;19.52;;;17.85;;
22965;SDS011;11649;48.090;9.754;2023-06-19T10:51:33;40.67;;;37.40;;
22965;SDS011;11649;48.090;9.754;2023-06-19T10:54:01;37.72;;;34.47;;
22965;SDS011;11649;48.090;9.754;2023-06-19T10:56:28;34.67;;;31.73;;
22965;SDS011;11649;48.090;9.754;2023-06-19T10:58:59;33.38;;;30.58;;
22965;SDS011;11649;48.090;9.754;2023-06-19T11:01:36;19.88;;;18.17;;
22965;SDS011;11649;48.090;9.754;2023-06-19T11:04:09;32.55;;;29.73;;
22965;SDS011;11649;48.090;9.754;2023-06-19T11:06:37;22.20;;;20.38;;
22965;SDS011;11649;48.090;9.754;2023-06-19T11:09:10;29.27;;;26.80;;
22965;SDS011;11649;48.090;9.754;2023-06-19T11:11:40;35.35;;;32.53;;
22965;SDS011;11649;48.090;9.754;2023-06-19T11:14:11;45.63;;;42.15;;
22965;SDS011;11649;48.090;9.754;2023-06-19T11:16:40;56.20;;;51.65;;
22965;SDS011;11649;48.090;9.754;2023-06-19T11:19:19;41.22;;;38.05;;
22965;SDS011;11649;48.090;9.754;2023-06-19T11:21:47;41.72;;;38.15;;
22965;SDS011;11649;48.090;9.754;2023-06-19T11:24:16;33.97;;;31.15;;
22965;SDS011;11649;48.090;9.754;2023-06-19T11:26:44;44.30;;;40.75;;
22965;SDS011;11649;48.090;9.754;2023-06-19T11:29:17;48.53;;;44.58;;
22965;SDS011;11649;48.090;9.754;2023-06-19T11:31:45;33.42;;;30.83;;
22965;SDS011;11649;48.090;9.754;2023-06-19T11:34:13;40.90;;;37.58;;
22965;SDS011;11649;48.090;9.754;2023-06-19T11:36:41;35.53;;;32.70;;
22965;SDS011;11649;48.090;9.754;2023-06-19T11:39:10;40.47;;;37.33;;
22965;SDS011;11649;48.090;9.754;2023-06-19T11:41:39;57.95;;;53.25;;
22965;SDS011;11649;48.090;9.754;2023-06-19T11:44:07;37.53;;;34.63;;
22965;SDS011;11649;48.090;9.754;2023-06-19T11:46:37;26.45;;;24.30;;
22965;SDS011;11649;48.090;9.754;2023-06-19T11:49:15;48.75;;;44.63;;
22965;SDS011;11649;48.090;9.754;2023-06-19T11:51:45;68.78;;;63.35;;
22965;SDS011;11649;48.090;9.754;2023-06-19T11:54:13;50.70;;;46.67;;
22965;SDS011;11649;48.090;9.754;2023-06-19T11:56:44;58.85;;;54.10;;
22965;SDS011;11649;48.090;9.754;2023-06-19T11:59:11;63.40;;;58.10;;
22965;SDS011;11649;48.090;9.754;2023-06-19T12:01:37;67.65;;;62.55;;
22965;SDS011;11649;48.090;9.754;2023-06-19T12:04:05;62.75;;;57.70;;
22965;SDS011;11649;48.090;9.754;2023-06-19T12:06:32;66.80;;;61.40;;
22965;SDS011;11649;48.090;9.754;2023-06-19T12:09:02;48.88;;;45.15;;
22965;SDS011;11649;48.090;9.754;2023-06-19T12:11:31;65.75;;;60.38;;
22965;SDS011;11649;48.090;9.754;2023-06-19T12:13:57;37.47;;;34.45;;
22965;SDS011;11649;48.090;9.754;2023-06-19T12:16:24;63.28;;;58.25;;
22965;SDS011;11649;48.090;9.754;2023-06-19T12:18:52;48.70;;;44.88;;
22965;SDS011;11649;48.090;9.754;2023-06-19T12:21:19;42.92;;;39.45;;
22965;SDS011;11649;48.090;9.754;2023-06-19T12:24:01;32.55;;;29.98;;
22965;SDS011;11649;48.090;9.754;2023-06-19T12:26:28;35.65;;;32.85;;
22965;SDS011;11649;48.090;9.754;2023-06-19T12:28:55;49.35;;;45.33;;
22965;SDS011;11649;48.090;9.754;2023-06-19T12:31:22;38.10;;;34.90;;
22965;SDS011;11649;48.090;9.754;2023-06-19T12:33:48;38.05;;;35.10;;
22965;SDS011;11649;48.090;9.754;2023-06-19T12:36:15;49.22;;;45.35;;
22965;SDS011;11649;48.090;9.754;2023-06-19T12:38:42;39.08;;;35.95;;
22965;SDS011;11649;48.090;9.754;2023-06-19T12:41:09;40.30;;;37.28;;
22965;SDS011;11649;48.090;9.754;2023-06-19T12:43:36;31.17;;;28.70;;
22965;SDS011;11649;48.090;9.754;2023-06-19T12:46:03;34.92;;;32.22;;
22965;SDS011;11649;48.090;9.754;2023-06-19T12:48:30;48.92;;;45.00;;
22965;SDS011;11649;48.090;9.754;2023-06-19T12:50:58;40.47;;;37.38;;
22965;SDS011;11649;48.090;9.754;2023-06-19T12:53:25;55.17;;;50.85;;
22965;SDS011;11649;48.090;9.754;2023-06-19T12:55:56;52.03;;;47.95;;
22965;SDS011;11649;48.090;9.754;2023-06-19T12:58:29;41.20;;;37.57;;
22965;SDS011;11649;48.090;9.754;2023-06-19T13:00:56;43.90;;;40.45;;
22965;SDS011;11649;48.090;9.754;2023-06-19T13:03:22;62.05;;;56.95;;
22965;SDS011;11649;48.090;9.754;2023-06-19T13:05:49;39.10;;;35.83;;
22965;SDS011;11649;48.090;9.754;2023-06-19T13:08:16;69.32;;;63.65;;
22965;SDS011;11649;48.090;9.754;2023-06-19T13:10:43;56.80;;;52.33;;
22965;SDS011;11649;48.090;9.754;2023-06-19T13:13:11;53.00;;;48.95;;
22965;SDS011;11649;48.090;9.754;2023-06-19T13:15:39;51.55;;;47.25;;
22965;SDS011;11649;48.090;9.754;2023-06-19T13:18:05;46.88;;;43.17;;
22965;SDS011;11649;48.090;9.754;2023-06-19T13:20:32;51.72;;;47.53;;
22965;SDS011;11649;48.090;9.754;2023-06-19T13:22:59;57.10;;;52.65;;
22965;SDS011;11649;48.090;9.754;2023-06-19T13:25:26;50.50;;;46.60;;
22965;SDS011;11649;48.090;9.754;2023-06-19T13:27:53;62.45;;;57.42;;
22965;SDS011;11649;48.090;9.754;2023-06-19T13:30:20;61.08;;;56.33;;
22965;SDS011;11649;48.090;9.754;2023-06-19T13:32:47;66.95;;;61.38;;
22965;SDS011;11649;48.090;9.754;2023-06-19T13:35:14;70.20;;;64.63;;
22965;SDS011;11649;48.090;9.754;2023-06-19T13:37:41;73.93;;;68.03;;
22965;SDS011;11649;48.090;9.754;2023-06-19T13:40:08;67.47;;;62.03;;
22965;SDS011;11649;48.090;9.754;2023-06-19T13:42:35;76.10;;;70.22;;
22965;SDS011;11649;48.090;9.754;2023-06-19T13:45:02;105.68;;;96.93;;
22965;SDS011;11649;48.090;9.754;2023-06-19T13:47:29;60.70;;;55.72;;
22965;SDS011;11649;48.090;9.754;2023-06-19T13:49:56;104.93;;;96.30;;
22965;SDS011;11649;48.090;9.754;2023-06-19T13:52:23;115.75;;;105.82;;
22965;SDS011;11649;48.090;9.754;2023-06-19T13:54:50;107.65;;;98.50;;
22965;SDS011;11649;48.090;9.754;2023-06-19T13:57:20;98.80;;;90.72;;
22965;SDS011;11649;48.090;9.754;2023-06-19T13:59:47;94.78;;;87.32;;
22965;SDS011;11649;48.090;9.754;2023-06-19T14:02:15;83.93;;;77.07;;
22965;SDS011;11649;48.090;9.754;2023-06-19T14:04:42;57.03;;;52.38;;
22965;SDS011;11649;48.090;9.754;2023-06-19T14:07:09;88.40;;;81.00;;
22965;SDS011;11649;48.090;9.754;2023-06-19T14:09:36;106.22;;;97.65;;
22965;SDS011;11649;48.090;9.754;2023-06-19T14:12:03;105.80;;;97.53;;
22965;SDS011;11649;48.090;9.754;2023-06-19T14:14:30;67.32;;;61.90;;
22965;SDS011;11649;48.090;9.754;2023-06-19T14:16:57;100.15;;;92.53;;
22965;SDS011;11649;48.090;9.754;2023-06-19T14:19:24;99.28;;;91.00;;
22965;SDS011;11649;48.090;9.754;2023-06-19T14:21:51;50.72;;;46.78;;
22965;SDS011;11649;48.090;9.754;2023-06-19T14:24:18;116.05;;;106.68;;
22965;SDS011;11649;48.090;9.754;2023-06-19T14:26:45;111.53;;;102.90;;
22965;SDS011;11649;48.090;9.754;2023-06-19T14:29:12;86.15;;;79.25;;